sensor_id;sensor_type;location;lat;lon;timestamp;P1;durP1;ratioP1;P2;durP2;ratioP2
49784;SDS011;35679;38.732;-121.358;2022-10-14T00:00:03;9.15;;;5.68;;
49784;SDS011;35679;38.732;-121.358;2022-10-14T00:02:57;6.30;;;5.60;;
49784;SDS011;35679;38.732;-121.358;2022-10-14T00:05:48;9.57;;;6.05;;
49784;SDS011;35679;38.732;-121.358;2022-10-14T00:08:38;7.80;;;5.72;;
49784;SDS011;35679;38.732;-121.358;2022-10-14T00:11:33;6.85;;;5.57;;
49784;SDS011;35679;38.732;-121.358;2022-10-14T00:14:25;7.25;;;5.30;;
49784;SDS011;35679;38.732;-121.358;2022-10-14T00:17:18;8.63;;;5.68;;
49784;SDS011;35679;38.732;-121.358;2022-10-14T00:20:11;8.05;;;5.95;;
49784;SDS011;35679;38.732;-121.358;2022-10-14T00:23:03;9.18;;;5.32;;
49784;SDS011;35679;38.732;-121.358;2022-10-14T00:25:53;6.55;;;5.68;;
49784;SDS011;35679;38.732;-121.358;2022-10-14T00:28:49;7.95;;;5.95;;
49784;SDS011;35679;38.732;-121.358;2022-10-14T00:31:40;12.05;;;5.55;;
49784;SDS011;35679;38.732;-121.358;2022-10-14T00:34:35;7.00;;;5.47;;
49784;SDS011;35679;38.732;-121.358;2022-10-14T00:37:26;6.28;;;5.55;;
49784;SDS011;35679;38.732;-121.358;2022-10-14T00:40:17;9.68;;;5.47;;
49784;SDS011;35679;38.732;-121.358;2022-10-14T00:43:11;6.72;;;5.63;;
49784;SDS011;35679;38.732;-121.358;2022-10-14T00:46:03;7.78;;;5.95;;
49784;SDS011;35679;38.732;-121.358;2022-10-14T00:48:54;6.30;;;4.93;;
49784;SDS011;35679;38.732;-121.358;2022-10-14T00:51:50;8.77;;;5.63;;
49784;SDS011;35679;38.732;-121.358;2022-10-14T00:54:49;8.20;;;5.85;;
49784;SDS011;35679;38.732;-121.358;2022-10-14T00:57:45;8.02;;;5.90;;
49784;SDS011;35679;38.732;-121.358;2022-10-14T01:00:35;11.15;;;6.30;;
49784;SDS011;35679;38.732;-121.358;2022-10-14T01:03:27;7.43;;;5.30;;
49784;SDS011;35679;38.732;-121.358;2022-10-14T01:19:15;265.85;;;73.18;;
49784;SDS011;35679;38.732;-121.358;2022-10-14T01:22:46;257.83;;;64.85;;
49784;SDS011;35679;38.732;-121.358;2022-10-14T01:32:51;348.13;;;91.75;;
49784;SDS011;35679;38.732;-121.358;2022-10-14T01:38:20;396.83;;;114.88;;
49784;SDS011;35679;38.732;-121.358;2022-10-14T01:41:22;409.58;;;119.70;;
49784;SDS011;35679;38.732;-121.358;2022-10-14T01:44:18;289.00;;;83.03;;
49784;SDS011;35679;38.732;-121.358;2022-10-14T01:47:12;362.85;;;98.85;;
49784;SDS011;35679;38.732;-121.358;2022-10-14T01:50:13;382.88;;;105.72;;
49784;SDS011;35679;38.732;-121.358;2022-10-14T01:53:07;436.50;;;131.35;;
49784;SDS011;35679;38.732;-121.358;2022-10-14T01:56:00;400.83;;;122.80;;
49784;SDS011;35679;38.732;-121.358;2022-10-14T01:58:52;418.02;;;123.53;;
49784;SDS011;35679;38.732;-121.358;2022-10-14T02:01:43;379.15;;;110.30;;
49784;SDS011;35679;38.732;-121.358;2022-10-14T02:04:35;382.30;;;116.50;;
49784;SDS011;35679;38.732;-121.358;2022-10-14T02:07:29;334.38;;;99.93;;
49784;SDS011;35679;38.732;-121.358;2022-10-14T02:16:59;268.88;;;90.28;;
49784;SDS011;35679;38.732;-121.358;2022-10-14T02:20:24;282.55;;;90.22;;
49784;SDS011;35679;38.732;-121.358;2022-10-14T02:23:23;280.08;;;87.90;;
49784;SDS011;35679;38.732;-121.358;2022-10-14T02:26:19;258.48;;;84.00;;
49784;SDS011;35679;38.732;-121.358;2022-10-14T02:29:10;258.08;;;80.80;;
49784;SDS011;35679;38.732;-121.358;2022-10-14T02:32:05;244.87;;;82.00;;
49784;SDS011;35679;38.732;-121.358;2022-10-14T02:34:58;226.48;;;77.22;;
49784;SDS011;35679;38.732;-121.358;2022-10-14T02:37:49;220.48;;;78.07;;
49784;SDS011;35679;38.732;-121.358;2022-10-14T02:40:43;225.63;;;77.55;;
49784;SDS011;35679;38.732;-121.358;2022-10-14T02:43:38;213.73;;;76.05;;
49784;SDS011;35679;38.732;-121.358;2022-10-14T02:46:28;162.20;;;57.70;;
49784;SDS011;35679;38.732;-121.358;2022-10-14T02:49:19;194.18;;;71.22;;
49784;SDS011;35679;38.732;-121.358;2022-10-14T02:52:10;199.95;;;71.40;;
49784;SDS011;35679;38.732;-121.358;2022-10-14T02:55:00;190.82;;;69.75;;
49784;SDS011;35679;38.732;-121.358;2022-10-14T02:57:49;188.77;;;69.43;;
49784;SDS011;35679;38.732;-121.358;2022-10-14T03:00:42;178.10;;;65.75;;
49784;SDS011;35679;38.732;-121.358;2022-10-14T03:03:32;166.73;;;59.13;;
49784;SDS011;35679;38.732;-121.358;2022-10-14T03:06:24;162.70;;;60.40;;
49784;SDS011;35679;38.732;-121.358;2022-10-14T03:09:17;150.27;;;57.45;;
49784;SDS011;35679;38.732;-121.358;2022-10-14T03:12:09;147.07;;;56.40;;
49784;SDS011;35679;38.732;-121.358;2022-10-14T03:14:59;145.45;;;54.83;;
49784;SDS011;35679;38.732;-121.358;2022-10-14T03:17:52;137.45;;;54.55;;
49784;SDS011;35679;38.732;-121.358;2022-10-14T03:20:51;130.00;;;50.40;;
49784;SDS011;35679;38.732;-121.358;2022-10-14T03:23:48;134.88;;;52.45;;
49784;SDS011;35679;38.732;-121.358;2022-10-14T03:26:45;120.82;;;49.42;;
49784;SDS011;35679;38.732;-121.358;2022-10-14T03:29:39;114.18;;;48.30;;
49784;SDS011;35679;38.732;-121.358;2022-10-14T03:32:35;114.18;;;48.78;;
49784;SDS011;35679;38.732;-121.358;2022-10-14T03:36:04;118.32;;;48.70;;
49784;SDS011;35679;38.732;-121.358;2022-10-14T03:39:08;120.65;;;49.97;;
49784;SDS011;35679;38.732;-121.358;2022-10-14T03:42:09;115.30;;;48.80;;
49784;SDS011;35679;38.732;-121.358;2022-10-14T03:45:04;103.57;;;45.35;;
49784;SDS011;35679;38.732;-121.358;2022-10-14T03:47:58;108.25;;;45.60;;
49784;SDS011;35679;38.732;-121.358;2022-10-14T03:50:48;103.03;;;44.75;;
49784;SDS011;35679;38.732;-121.358;2022-10-14T03:53:39;100.70;;;45.03;;
49784;SDS011;35679;38.732;-121.358;2022-10-14T03:56:29;99.05;;;43.42;;
49784;SDS011;35679;38.732;-121.358;2022-10-14T03:59:20;95.47;;;42.58;;
49784;SDS011;35679;38.732;-121.358;2022-10-14T04:02:11;90.50;;;41.05;;
49784;SDS011;35679;38.732;-121.358;2022-10-14T04:05:03;93.60;;;40.15;;
49784;SDS011;35679;38.732;-121.358;2022-10-14T04:07:54;90.60;;;39.30;;
49784;SDS011;35679;38.732;-121.358;2022-10-14T04:10:50;83.63;;;37.72;;
49784;SDS011;35679;38.732;-121.358;2022-10-14T04:13:47;84.72;;;38.28;;
49784;SDS011;35679;38.732;-121.358;2022-10-14T04:16:36;86.40;;;37.83;;
49784;SDS011;35679;38.732;-121.358;2022-10-14T04:19:30;82.85;;;37.08;;
49784;SDS011;35679;38.732;-121.358;2022-10-14T04:22:22;85.68;;;37.00;;
49784;SDS011;35679;38.732;-121.358;2022-10-14T04:28:09;77.57;;;36.13;;
49784;SDS011;35679;38.732;-121.358;2022-10-14T04:31:09;63.28;;;31.38;;
49784;SDS011;35679;38.732;-121.358;2022-10-14T04:34:09;74.45;;;33.85;;
49784;SDS011;35679;38.732;-121.358;2022-10-14T04:37:01;60.00;;;30.35;;
49784;SDS011;35679;38.732;-121.358;2022-10-14T04:40:04;58.17;;;28.73;;
49784;SDS011;35679;38.732;-121.358;2022-10-14T04:43:01;60.47;;;31.23;;
49784;SDS011;35679;38.732;-121.358;2022-10-14T04:45:57;56.50;;;29.35;;
49784;SDS011;35679;38.732;-121.358;2022-10-14T04:48:48;64.32;;;30.13;;
49784;SDS011;35679;38.732;-121.358;2022-10-14T04:51:42;58.65;;;30.63;;
49784;SDS011;35679;38.732;-121.358;2022-10-14T04:54:45;52.28;;;26.70;;
49784;SDS011;35679;38.732;-121.358;2022-10-14T04:57:41;54.08;;;27.73;;
49784;SDS011;35679;38.732;-121.358;2022-10-14T05:00:34;44.13;;;23.83;;
49784;SDS011;35679;38.732;-121.358;2022-10-14T05:03:41;47.70;;;23.73;;
49784;SDS011;35679;38.732;-121.358;2022-10-14T05:06:31;47.17;;;23.10;;
49784;SDS011;35679;38.732;-121.358;2022-10-14T05:09:22;48.78;;;23.50;;
49784;SDS011;35679;38.732;-121.358;2022-10-14T05:12:13;43.08;;;21.55;;
49784;SDS011;35679;38.732;-121.358;2022-10-14T05:15:09;41.10;;;22.45;;
49784;SDS011;35679;38.732;-121.358;2022-10-14T05:18:18;36.90;;;20.92;;
49784;SDS011;35679;38.732;-121.358;2022-10-14T05:21:24;39.97;;;22.00;;
49784;SDS011;35679;38.732;-121.358;2022-10-14T05:24:19;36.90;;;20.45;;
49784;SDS011;35679;38.732;-121.358;2022-10-14T05:27:10;36.35;;;20.05;;
49784;SDS011;35679;38.732;-121.358;2022-10-14T05:30:02;37.03;;;20.70;;
49784;SDS011;35679;38.732;-121.358;2022-10-14T05:32:58;39.53;;;21.77;;
49784;SDS011;35679;38.732;-121.358;2022-10-14T05:35:48;34.70;;;18.52;;
49784;SDS011;35679;38.732;-121.358;2022-10-14T05:38:50;32.77;;;18.30;;
49784;SDS011;35679;38.732;-121.358;2022-10-14T05:41:47;34.88;;;18.40;;
49784;SDS011;35679;38.732;-121.358;2022-10-14T05:44:42;35.15;;;18.42;;
49784;SDS011;35679;38.732;-121.358;2022-10-14T05:47:33;38.33;;;19.90;;
49784;SDS011;35679;38.732;-121.358;2022-10-14T05:50:32;34.80;;;18.70;;
49784;SDS011;35679;38.732;-121.358;2022-10-14T05:53:29;31.90;;;17.73;;
49784;SDS011;35679;38.732;-121.358;2022-10-14T05:56:24;32.55;;;17.85;;
49784;SDS011;35679;38.732;-121.358;2022-10-14T05:59:16;31.25;;;17.42;;
49784;SDS011;35679;38.732;-121.358;2022-10-14T06:02:07;29.20;;;15.43;;
49784;SDS011;35679;38.732;-121.358;2022-10-14T06:04:57;27.15;;;15.80;;
49784;SDS011;35679;38.732;-121.358;2022-10-14T06:07:47;29.42;;;15.45;;
49784;SDS011;35679;38.732;-121.358;2022-10-14T06:10:38;27.50;;;15.60;;
49784;SDS011;35679;38.732;-121.358;2022-10-14T06:13:28;23.40;;;14.35;;
49784;SDS011;35679;38.732;-121.358;2022-10-14T06:16:18;22.52;;;14.25;;
49784;SDS011;35679;38.732;-121.358;2022-10-14T06:19:13;24.15;;;14.63;;
49784;SDS011;35679;38.732;-121.358;2022-10-14T06:22:04;25.65;;;14.10;;
49784;SDS011;35679;38.732;-121.358;2022-10-14T06:24:53;20.98;;;13.75;;
49784;SDS011;35679;38.732;-121.358;2022-10-14T06:27:49;23.98;;;13.68;;
49784;SDS011;35679;38.732;-121.358;2022-10-14T06:30:39;23.83;;;13.25;;
49784;SDS011;35679;38.732;-121.358;2022-10-14T06:33:31;20.83;;;13.20;;
49784;SDS011;35679;38.732;-121.358;2022-10-14T06:36:22;23.23;;;13.88;;
49784;SDS011;35679;38.732;-121.358;2022-10-14T06:39:13;21.23;;;12.82;;
49784;SDS011;35679;38.732;-121.358;2022-10-14T06:42:04;23.02;;;13.10;;
49784;SDS011;35679;38.732;-121.358;2022-10-14T06:45:00;20.92;;;12.50;;
49784;SDS011;35679;38.732;-121.358;2022-10-14T06:47:51;21.55;;;12.52;;
49784;SDS011;35679;38.732;-121.358;2022-10-14T06:50:41;18.50;;;11.85;;
49784;SDS011;35679;38.732;-121.358;2022-10-14T06:53:31;20.70;;;12.55;;
49784;SDS011;35679;38.732;-121.358;2022-10-14T06:56:22;19.27;;;12.23;;
49784;SDS011;35679;38.732;-121.358;2022-10-14T06:59:12;22.05;;;12.10;;
49784;SDS011;35679;38.732;-121.358;2022-10-14T07:02:03;20.85;;;12.27;;
49784;SDS011;35679;38.732;-121.358;2022-10-14T07:04:54;18.02;;;11.43;;
49784;SDS011;35679;38.732;-121.358;2022-10-14T07:07:44;20.05;;;11.32;;
49784;SDS011;35679;38.732;-121.358;2022-10-14T07:10:35;18.83;;;11.30;;
49784;SDS011;35679;38.732;-121.358;2022-10-14T07:13:27;17.63;;;10.90;;
49784;SDS011;35679;38.732;-121.358;2022-10-14T07:16:18;15.63;;;10.65;;
49784;SDS011;35679;38.732;-121.358;2022-10-14T07:19:09;15.48;;;9.95;;
49784;SDS011;35679;38.732;-121.358;2022-10-14T07:21:59;16.17;;;9.73;;
49784;SDS011;35679;38.732;-121.358;2022-10-14T07:24:49;17.70;;;10.40;;
49784;SDS011;35679;38.732;-121.358;2022-10-14T07:27:39;16.80;;;9.70;;
49784;SDS011;35679;38.732;-121.358;2022-10-14T07:30:30;16.95;;;10.27;;
49784;SDS011;35679;38.732;-121.358;2022-10-14T07:33:20;16.02;;;9.65;;
49784;SDS011;35679;38.732;-121.358;2022-10-14T07:36:12;17.02;;;9.85;;
49784;SDS011;35679;38.732;-121.358;2022-10-14T07:39:09;14.93;;;9.15;;
49784;SDS011;35679;38.732;-121.358;2022-10-14T07:41:59;16.30;;;9.98;;
49784;SDS011;35679;38.732;-121.358;2022-10-14T07:44:50;14.20;;;9.02;;
49784;SDS011;35679;38.732;-121.358;2022-10-14T07:47:43;14.77;;;9.07;;
49784;SDS011;35679;38.732;-121.358;2022-10-14T07:50:36;12.10;;;8.45;;
49784;SDS011;35679;38.732;-121.358;2022-10-14T07:53:27;13.70;;;8.77;;
49784;SDS011;35679;38.732;-121.358;2022-10-14T07:56:18;11.90;;;7.88;;
49784;SDS011;35679;38.732;-121.358;2022-10-14T07:59:09;13.68;;;8.73;;
49784;SDS011;35679;38.732;-121.358;2022-10-14T08:02:01;14.57;;;8.60;;
49784;SDS011;35679;38.732;-121.358;2022-10-14T08:04:54;11.90;;;7.88;;
49784;SDS011;35679;38.732;-121.358;2022-10-14T08:08:04;13.95;;;8.77;;
49784;SDS011;35679;38.732;-121.358;2022-10-14T08:11:08;12.43;;;8.60;;
49784;SDS011;35679;38.732;-121.358;2022-10-14T08:14:03;10.45;;;7.38;;
49784;SDS011;35679;38.732;-121.358;2022-10-14T08:16:54;11.68;;;7.47;;
49784;SDS011;35679;38.732;-121.358;2022-10-14T08:19:44;10.48;;;7.75;;
49784;SDS011;35679;38.732;-121.358;2022-10-14T08:22:35;11.90;;;8.02;;
49784;SDS011;35679;38.732;-121.358;2022-10-14T08:25:26;11.75;;;8.00;;
49784;SDS011;35679;38.732;-121.358;2022-10-14T08:28:17;11.23;;;8.02;;
49784;SDS011;35679;38.732;-121.358;2022-10-14T08:31:08;10.77;;;7.70;;
49784;SDS011;35679;38.732;-121.358;2022-10-14T08:33:59;11.73;;;7.80;;
49784;SDS011;35679;38.732;-121.358;2022-10-14T08:36:50;10.10;;;7.22;;
49784;SDS011;35679;38.732;-121.358;2022-10-14T08:39:40;10.65;;;7.07;;
49784;SDS011;35679;38.732;-121.358;2022-10-14T08:45:54;10.30;;;7.28;;
49784;SDS011;35679;38.732;-121.358;2022-10-14T08:48:53;8.80;;;7.25;;
49784;SDS011;35679;38.732;-121.358;2022-10-14T08:52:09;10.30;;;7.65;;
49784;SDS011;35679;38.732;-121.358;2022-10-14T08:55:58;10.13;;;7.53;;
49784;SDS011;35679;38.732;-121.358;2022-10-14T09:01:42;9.25;;;7.07;;
49784;SDS011;35679;38.732;-121.358;2022-10-14T09:04:39;8.82;;;6.57;;
49784;SDS011;35679;38.732;-121.358;2022-10-14T09:07:29;8.85;;;7.18;;
49784;SDS011;35679;38.732;-121.358;2022-10-14T09:13:30;10.45;;;7.18;;
49784;SDS011;35679;38.732;-121.358;2022-10-14T09:16:32;8.13;;;6.45;;
49784;SDS011;35679;38.732;-121.358;2022-10-14T09:19:36;7.65;;;6.72;;
49784;SDS011;35679;38.732;-121.358;2022-10-14T09:22:35;8.68;;;6.47;;
49784;SDS011;35679;38.732;-121.358;2022-10-14T09:25:26;10.40;;;6.18;;
49784;SDS011;35679;38.732;-121.358;2022-10-14T09:28:22;9.18;;;6.68;;
49784;SDS011;35679;38.732;-121.358;2022-10-14T09:31:26;9.07;;;6.00;;
49784;SDS011;35679;38.732;-121.358;2022-10-14T09:34:18;7.40;;;6.38;;
49784;SDS011;35679;38.732;-121.358;2022-10-14T09:37:32;8.40;;;6.38;;
49784;SDS011;35679;38.732;-121.358;2022-10-14T09:43:23;9.02;;;6.53;;
49784;SDS011;35679;38.732;-121.358;2022-10-14T09:46:14;7.88;;;6.03;;
49784;SDS011;35679;38.732;-121.358;2022-10-14T09:49:12;6.93;;;5.78;;
49784;SDS011;35679;38.732;-121.358;2022-10-14T09:52:21;7.07;;;5.93;;
49784;SDS011;35679;38.732;-121.358;2022-10-14T09:55:17;7.43;;;5.85;;
49784;SDS011;35679;38.732;-121.358;2022-10-14T09:58:12;7.75;;;6.10;;
49784;SDS011;35679;38.732;-121.358;2022-10-14T10:01:06;6.78;;;5.90;;
49784;SDS011;35679;38.732;-121.358;2022-10-14T10:04:30;7.30;;;5.28;;
49784;SDS011;35679;38.732;-121.358;2022-10-14T10:07:27;8.10;;;5.75;;
49784;SDS011;35679;38.732;-121.358;2022-10-14T10:10:20;7.28;;;5.53;;
49784;SDS011;35679;38.732;-121.358;2022-10-14T10:13:20;8.65;;;6.00;;
49784;SDS011;35679;38.732;-121.358;2022-10-14T10:16:21;9.13;;;6.45;;
49784;SDS011;35679;38.732;-121.358;2022-10-14T10:19:28;7.68;;;5.68;;
49784;SDS011;35679;38.732;-121.358;2022-10-14T10:22:23;7.55;;;5.70;;
49784;SDS011;35679;38.732;-121.358;2022-10-14T10:25:17;7.13;;;5.30;;
49784;SDS011;35679;38.732;-121.358;2022-10-14T10:28:15;7.82;;;5.80;;
49784;SDS011;35679;38.732;-121.358;2022-10-14T10:40:35;5.15;;;4.65;;
49784;SDS011;35679;38.732;-121.358;2022-10-14T10:47:04;7.80;;;5.30;;
49784;SDS011;35679;38.732;-121.358;2022-10-14T10:56:40;7.65;;;5.28;;
49784;SDS011;35679;38.732;-121.358;2022-10-14T10:59:59;6.60;;;5.22;;
49784;SDS011;35679;38.732;-121.358;2022-10-14T11:06:20;7.35;;;5.30;;
49784;SDS011;35679;38.732;-121.358;2022-10-14T11:09:45;7.90;;;5.53;;
49784;SDS011;35679;38.732;-121.358;2022-10-14T11:12:59;6.22;;;5.40;;
49784;SDS011;35679;38.732;-121.358;2022-10-14T11:16:06;6.72;;;5.00;;
49784;SDS011;35679;38.732;-121.358;2022-10-14T11:22:46;6.43;;;5.45;;
49784;SDS011;35679;38.732;-121.358;2022-10-14T11:26:04;7.13;;;5.28;;
49784;SDS011;35679;38.732;-121.358;2022-10-14T11:29:14;6.60;;;4.88;;
49784;SDS011;35679;38.732;-121.358;2022-10-14T11:32:20;6.93;;;4.75;;
49784;SDS011;35679;38.732;-121.358;2022-10-14T11:41:58;6.78;;;5.30;;
49784;SDS011;35679;38.732;-121.358;2022-10-14T11:48:25;8.32;;;5.15;;
49784;SDS011;35679;38.732;-121.358;2022-10-14T11:51:24;8.18;;;5.15;;
49784;SDS011;35679;38.732;-121.358;2022-10-14T11:54:30;5.70;;;4.32;;
49784;SDS011;35679;38.732;-121.358;2022-10-14T11:57:38;9.50;;;4.20;;
49784;SDS011;35679;38.732;-121.358;2022-10-14T12:00:32;5.88;;;4.20;;
49784;SDS011;35679;38.732;-121.358;2022-10-14T12:06:37;6.20;;;4.50;;
49784;SDS011;35679;38.732;-121.358;2022-10-14T12:09:42;7.05;;;4.68;;
49784;SDS011;35679;38.732;-121.358;2022-10-14T12:12:39;7.50;;;4.57;;
49784;SDS011;35679;38.732;-121.358;2022-10-14T12:15:31;6.80;;;4.82;;
49784;SDS011;35679;38.732;-121.358;2022-10-14T12:18:26;4.47;;;3.90;;
49784;SDS011;35679;38.732;-121.358;2022-10-14T12:21:43;6.03;;;4.53;;
49784;SDS011;35679;38.732;-121.358;2022-10-14T12:24:49;7.80;;;4.40;;
49784;SDS011;35679;38.732;-121.358;2022-10-14T12:27:45;6.22;;;4.80;;
49784;SDS011;35679;38.732;-121.358;2022-10-14T12:30:39;6.50;;;4.40;;
49784;SDS011;35679;38.732;-121.358;2022-10-14T12:33:30;6.88;;;4.68;;
49784;SDS011;35679;38.732;-121.358;2022-10-14T12:37:04;6.25;;;4.65;;
49784;SDS011;35679;38.732;-121.358;2022-10-14T12:39:36;9.35;;;5.07;;
49784;SDS011;35679;38.732;-121.358;2022-10-14T12:42:32;8.77;;;4.60;;
49784;SDS011;35679;38.732;-121.358;2022-10-14T12:45:25;7.03;;;4.70;;
49784;SDS011;35679;38.732;-121.358;2022-10-14T12:48:20;7.28;;;4.43;;
49784;SDS011;35679;38.732;-121.358;2022-10-14T12:51:19;10.30;;;4.65;;
49784;SDS011;35679;38.732;-121.358;2022-10-14T12:54:12;9.95;;;4.50;;
49784;SDS011;35679;38.732;-121.358;2022-10-14T12:57:14;5.32;;;4.40;;
49784;SDS011;35679;38.732;-121.358;2022-10-14T13:03:18;9.88;;;4.80;;
49784;SDS011;35679;38.732;-121.358;2022-10-14T13:06:30;10.80;;;4.80;;
49784;SDS011;35679;38.732;-121.358;2022-10-14T13:09:30;6.63;;;4.57;;
49784;SDS011;35679;38.732;-121.358;2022-10-14T13:15:46;8.02;;;4.80;;
49784;SDS011;35679;38.732;-121.358;2022-10-14T13:24:28;8.10;;;4.85;;
49784;SDS011;35679;38.732;-121.358;2022-10-14T13:27:35;6.30;;;4.70;;
49784;SDS011;35679;38.732;-121.358;2022-10-14T13:30:36;6.55;;;4.90;;
49784;SDS011;35679;38.732;-121.358;2022-10-14T13:33:51;7.95;;;4.70;;
49784;SDS011;35679;38.732;-121.358;2022-10-14T13:37:02;8.32;;;4.55;;
49784;SDS011;35679;38.732;-121.358;2022-10-14T13:49:18;7.65;;;4.88;;
49784;SDS011;35679;38.732;-121.358;2022-10-14T13:52:19;9.90;;;5.35;;
49784;SDS011;35679;38.732;-121.358;2022-10-14T13:55:14;9.43;;;5.10;;
49784;SDS011;35679;38.732;-121.358;2022-10-14T13:58:14;11.40;;;5.20;;
49784;SDS011;35679;38.732;-121.358;2022-10-14T14:01:06;5.93;;;4.57;;
49784;SDS011;35679;38.732;-121.358;2022-10-14T14:03:59;9.40;;;5.45;;
49784;SDS011;35679;38.732;-121.358;2022-10-14T14:06:50;5.60;;;4.32;;
49784;SDS011;35679;38.732;-121.358;2022-10-14T14:10:02;10.25;;;5.75;;
49784;SDS011;35679;38.732;-121.358;2022-10-14T14:12:56;5.65;;;4.63;;
49784;SDS011;35679;38.732;-121.358;2022-10-14T14:15:52;6.38;;;4.72;;
49784;SDS011;35679;38.732;-121.358;2022-10-14T14:18:45;9.20;;;5.10;;
49784;SDS011;35679;38.732;-121.358;2022-10-14T14:28:29;5.53;;;4.35;;
49784;SDS011;35679;38.732;-121.358;2022-10-14T14:31:20;8.35;;;5.05;;
49784;SDS011;35679;38.732;-121.358;2022-10-14T14:34:34;10.75;;;4.88;;
49784;SDS011;35679;38.732;-121.358;2022-10-14T14:37:28;15.30;;;5.65;;
49784;SDS011;35679;38.732;-121.358;2022-10-14T14:40:40;6.72;;;5.32;;
49784;SDS011;35679;38.732;-121.358;2022-10-14T14:43:30;7.32;;;4.90;;
49784;SDS011;35679;38.732;-121.358;2022-10-14T14:46:30;9.35;;;5.30;;
49784;SDS011;35679;38.732;-121.358;2022-10-14T14:49:28;8.30;;;5.07;;
49784;SDS011;35679;38.732;-121.358;2022-10-14T14:52:21;8.52;;;5.38;;
49784;SDS011;35679;38.732;-121.358;2022-10-14T15:01:20;10.25;;;4.88;;
49784;SDS011;35679;38.732;-121.358;2022-10-14T15:04:15;7.60;;;5.25;;
49784;SDS011;35679;38.732;-121.358;2022-10-14T15:07:09;11.20;;;5.63;;
49784;SDS011;35679;38.732;-121.358;2022-10-14T15:10:07;17.33;;;5.57;;
49784;SDS011;35679;38.732;-121.358;2022-10-14T15:13:22;10.77;;;4.60;;
49784;SDS011;35679;38.732;-121.358;2022-10-14T15:16:32;11.05;;;4.60;;
49784;SDS011;35679;38.732;-121.358;2022-10-14T15:19:34;9.82;;;4.68;;
49784;SDS011;35679;38.732;-121.358;2022-10-14T15:22:37;7.43;;;4.35;;
49784;SDS011;35679;38.732;-121.358;2022-10-14T15:25:29;9.13;;;4.50;;
49784;SDS011;35679;38.732;-121.358;2022-10-14T15:28:28;12.20;;;4.90;;
49784;SDS011;35679;38.732;-121.358;2022-10-14T15:31:20;11.05;;;5.07;;
49784;SDS011;35679;38.732;-121.358;2022-10-14T15:34:19;9.95;;;4.82;;
49784;SDS011;35679;38.732;-121.358;2022-10-14T15:37:11;8.00;;;4.43;;
49784;SDS011;35679;38.732;-121.358;2022-10-14T15:40:02;14.60;;;4.75;;
49784;SDS011;35679;38.732;-121.358;2022-10-14T15:42:58;16.10;;;5.13;;
49784;SDS011;35679;38.732;-121.358;2022-10-14T15:45:49;12.02;;;4.95;;
49784;SDS011;35679;38.732;-121.358;2022-10-14T15:49:02;19.35;;;5.32;;
49784;SDS011;35679;38.732;-121.358;2022-10-14T15:51:58;12.55;;;5.03;;
49784;SDS011;35679;38.732;-121.358;2022-10-14T15:54:49;31.30;;;5.40;;
49784;SDS011;35679;38.732;-121.358;2022-10-14T15:57:38;25.05;;;5.22;;
49784;SDS011;35679;38.732;-121.358;2022-10-14T16:00:27;11.55;;;4.82;;
49784;SDS011;35679;38.732;-121.358;2022-10-14T16:03:20;11.20;;;5.13;;
49784;SDS011;35679;38.732;-121.358;2022-10-14T16:06:10;9.52;;;5.18;;
49784;SDS011;35679;38.732;-121.358;2022-10-14T16:09:02;13.45;;;5.22;;
49784;SDS011;35679;38.732;-121.358;2022-10-14T16:11:52;13.13;;;5.28;;
49784;SDS011;35679;38.732;-121.358;2022-10-14T16:14:47;11.70;;;4.88;;
49784;SDS011;35679;38.732;-121.358;2022-10-14T16:17:36;20.73;;;5.30;;
49784;SDS011;35679;38.732;-121.358;2022-10-14T16:20:25;15.93;;;5.25;;
49784;SDS011;35679;38.732;-121.358;2022-10-14T16:23:15;14.90;;;5.13;;
49784;SDS011;35679;38.732;-121.358;2022-10-14T16:26:07;12.35;;;4.47;;
49784;SDS011;35679;38.732;-121.358;2022-10-14T16:28:58;9.20;;;4.85;;
49784;SDS011;35679;38.732;-121.358;2022-10-14T16:31:50;13.70;;;5.60;;
49784;SDS011;35679;38.732;-121.358;2022-10-14T16:34:40;20.27;;;6.70;;
49784;SDS011;35679;38.732;-121.358;2022-10-14T16:37:29;26.38;;;7.63;;
49784;SDS011;35679;38.732;-121.358;2022-10-14T16:40:18;22.95;;;6.53;;
49784;SDS011;35679;38.732;-121.358;2022-10-14T16:43:08;22.75;;;6.22;;
49784;SDS011;35679;38.732;-121.358;2022-10-14T16:45:59;21.73;;;6.38;;
49784;SDS011;35679;38.732;-121.358;2022-10-14T16:48:50;12.85;;;5.35;;
49784;SDS011;35679;38.732;-121.358;2022-10-14T16:51:44;16.67;;;5.88;;
49784;SDS011;35679;38.732;-121.358;2022-10-14T16:54:34;13.30;;;5.73;;
49784;SDS011;35679;38.732;-121.358;2022-10-14T16:57:23;23.48;;;6.65;;
49784;SDS011;35679;38.732;-121.358;2022-10-14T17:00:13;14.57;;;6.03;;
49784;SDS011;35679;38.732;-121.358;2022-10-14T17:03:28;16.08;;;5.82;;
49784;SDS011;35679;38.732;-121.358;2022-10-14T17:06:17;20.20;;;6.70;;
49784;SDS011;35679;38.732;-121.358;2022-10-14T17:09:10;16.60;;;6.20;;
49784;SDS011;35679;38.732;-121.358;2022-10-14T17:12:00;14.80;;;5.43;;
49784;SDS011;35679;38.732;-121.358;2022-10-14T17:14:55;17.38;;;5.60;;
49784;SDS011;35679;38.732;-121.358;2022-10-14T17:17:45;12.90;;;5.20;;
49784;SDS011;35679;38.732;-121.358;2022-10-14T17:20:35;13.82;;;4.95;;
49784;SDS011;35679;38.732;-121.358;2022-10-14T17:23:27;13.77;;;5.95;;
49784;SDS011;35679;38.732;-121.358;2022-10-14T17:26:21;10.48;;;6.00;;
49784;SDS011;35679;38.732;-121.358;2022-10-14T17:29:10;12.90;;;5.75;;
49784;SDS011;35679;38.732;-121.358;2022-10-14T17:32:00;12.38;;;5.88;;
49784;SDS011;35679;38.732;-121.358;2022-10-14T17:34:49;11.13;;;5.82;;
49784;SDS011;35679;38.732;-121.358;2022-10-14T17:37:40;10.25;;;5.88;;
49784;SDS011;35679;38.732;-121.358;2022-10-14T17:40:29;9.27;;;6.03;;
49784;SDS011;35679;38.732;-121.358;2022-10-14T17:43:20;12.27;;;6.35;;
49784;SDS011;35679;38.732;-121.358;2022-10-14T17:46:11;14.57;;;6.45;;
49784;SDS011;35679;38.732;-121.358;2022-10-14T17:49:04;11.13;;;5.53;;
49784;SDS011;35679;38.732;-121.358;2022-10-14T17:54:49;9.68;;;5.13;;
49784;SDS011;35679;38.732;-121.358;2022-10-14T17:57:41;8.20;;;5.07;;
49784;SDS011;35679;38.732;-121.358;2022-10-14T18:00:31;9.43;;;5.70;;
49784;SDS011;35679;38.732;-121.358;2022-10-14T18:03:20;8.23;;;6.00;;
49784;SDS011;35679;38.732;-121.358;2022-10-14T18:06:11;8.23;;;5.25;;
49784;SDS011;35679;38.732;-121.358;2022-10-14T18:09:04;9.80;;;6.03;;
49784;SDS011;35679;38.732;-121.358;2022-10-14T18:11:55;8.93;;;4.90;;
49784;SDS011;35679;38.732;-121.358;2022-10-14T18:15:00;10.75;;;5.07;;
49784;SDS011;35679;38.732;-121.358;2022-10-14T18:17:49;8.93;;;4.68;;
49784;SDS011;35679;38.732;-121.358;2022-10-14T18:20:39;9.68;;;5.47;;
49784;SDS011;35679;38.732;-121.358;2022-10-14T18:23:28;8.65;;;5.68;;
49784;SDS011;35679;38.732;-121.358;2022-10-14T18:26:23;8.95;;;5.22;;
49784;SDS011;35679;38.732;-121.358;2022-10-14T18:29:12;7.45;;;5.53;;
49784;SDS011;35679;38.732;-121.358;2022-10-14T18:32:02;7.47;;;5.53;;
49784;SDS011;35679;38.732;-121.358;2022-10-14T18:34:52;8.52;;;5.57;;
49784;SDS011;35679;38.732;-121.358;2022-10-14T18:37:42;7.43;;;5.55;;